Terminal Aerodrome Forecast
Issued by NWS

Home | Current Version | Previous Version | Graphics & Text | Print | Product List | Glossary On
Versions: 1 2 3 4 5 6 7 8 9 10 11 12 13 14 15 16 17 18 19
000
FTUS43 KGRB 251733
TAFMTW
TAF
KMTW 251733Z 2518/2618 03010G16KT P6SM SCT026
     FM252200 03006KT P6SM SCT045
     FM260300 VRB03KT P6SM SCT250
     FM260800 00000KT 3SM BR SCT120
      TEMPO 2608/2612 1SM BR
     FM261300 VRB03KT 5SM BR BKN080
     FM261400 13005KT P6SM BKN070=

USA.gov is the U.S. government's official web portal to all federal, state and local government web resources and services.